Time;durP1;ratioP1;P1;durP2;ratioP2;P2;SDS_P1;SDS_P2;PMS_P1;PMS_P2;Temp;Humidity;BMP_temperature;BMP_pressure;BME280_temperature;BME280_humidity;BME280_pressure;Samples;Min_cycle;Max_cycle;Signal;HPM_P1;HPM_P2
2023/03/13 00:00:52;;;;;;;;;0.00;0.00;;;;;;;;5064838;28;63882;-84
2023/03/13 00:03:17;;;;;;;;;2.25;1.75;;;;;;;;5065806;28;61988;-84
2023/03/13 00:05:43;;;;;;;;;3.00;1.50;;;;;;;;5065907;28;61743;-84
2023/03/13 00:08:08;;;;;;;;;5.00;2.00;;;;;;;;5084202;27;61948;-84
2023/03/13 00:10:37;;;;;;;;;0.00;0.00;;;;;;;;5082447;28;64676;-84
2023/03/13 00:13:02;;;;;;;;;1.25;1.00;;;;;;;;5083087;27;62049;-85
2023/03/13 00:15:27;;;;;;;;;1.75;1.25;;;;;;;;5084098;27;61965;-84
2023/03/13 00:17:53;;;;;;;;;2.25;1.00;;;;;;;;5084081;28;61907;-84
2023/03/13 00:20:18;;;;;;;;;1.50;1.25;;;;;;;;5065148;28;64204;-84
2023/03/13 00:22:43;;;;;;;;;0.00;0.00;;;;;;;;5084102;28;61833;-85
2023/03/13 00:25:09;;;;;;;;;0.00;0.00;;;;;;;;5083987;28;61991;-84
2023/03/13 00:27:34;;;;;;;;;1.50;1.50;;;;;;;;5084092;28;61749;-83
2023/03/13 00:29:59;;;;;;;;;1.00;1.00;;;;;;;;5083058;28;62902;-84
2023/03/13 00:32:25;;;;;;;;;1.50;1.00;;;;;;;;5064797;28;62038;-84
2023/03/13 00:34:50;;;;;;;;;2.00;1.00;;;;;;;;5084175;27;62104;-84
2023/03/13 00:37:15;;;;;;;;;2.00;0.00;;;;;;;;5065320;28;62139;-84
2023/03/13 00:39:41;;;;;;;;;0.75;0.25;;;;;;;;5064727;28;64836;-84
2023/03/13 00:42:06;;;;;;;;;0.00;0.00;;;;;;;;5065679;28;61681;-84
2023/03/13 00:44:31;;;;;;;;;0.75;0.75;;;;;;;;5065729;28;61822;-84
2023/03/13 00:46:56;;;;;;;;;0.00;0.00;;;;;;;;5065537;28;61740;-83
2023/03/13 00:49:22;;;;;;;;;2.00;1.00;;;;;;;;5064681;27;63998;-83
2023/03/13 00:51:47;;;;;;;;;0.25;0.25;;;;;;;;5083819;27;61690;-83
2023/03/13 00:54:12;;;;;;;;;0.75;0.75;;;;;;;;5083485;27;61746;-84
2023/03/13 00:56:42;;;;;;;;;0.50;0.50;;;;;;;;5084223;28;61726;-84
2023/03/13 00:59:07;;;;;;;;;1.25;0.50;;;;;;;;5082541;27;61901;-84
2023/03/13 01:01:34;;;;;;;;;2.00;0.75;;;;;;;;5065130;28;61863;-84
2023/03/13 01:04:08;;;;;;;;;1.00;1.00;;;;;;;;5083696;27;61960;-84
2023/03/13 01:06:35;;;;;;;;;2.00;1.00;;;;;;;;5083507;28;61726;-83
2023/03/13 01:09:01;;;;;;;;;2.00;2.00;;;;;;;;5082273;28;62299;-84
2023/03/13 01:11:27;;;;;;;;;2.75;2.75;;;;;;;;5065005;28;62164;-84
2023/03/13 01:13:57;;;;;;;;;2.00;1.00;;;;;;;;5065014;28;61786;-84
2023/03/13 01:16:23;;;;;;;;;2.00;2.00;;;;;;;;5065431;28;61885;-84
2023/03/13 01:18:50;;;;;;;;;1.75;1.75;;;;;;;;5082636;28;61868;-84
2023/03/13 01:21:15;;;;;;;;;2.50;1.00;;;;;;;;5083206;28;62114;-84
2023/03/13 01:23:41;;;;;;;;;1.75;1.00;;;;;;;;5082858;27;61782;-84
2023/03/13 01:26:07;;;;;;;;;0.50;0.50;;;;;;;;5083563;27;61732;-84
2023/03/13 01:28:32;;;;;;;;;3.00;2.00;;;;;;;;5081887;27;63201;-81
2023/03/13 01:30:58;;;;;;;;;1.75;1.75;;;;;;;;5083027;27;61717;-84
2023/03/13 01:33:23;;;;;;;;;4.00;2.50;;;;;;;;5064696;28;61740;-84
2023/03/13 01:35:49;;;;;;;;;1.25;1.25;;;;;;;;5065033;28;61832;-85
2023/03/13 01:38:14;;;;;;;;;1.75;1.75;;;;;;;;5063539;28;63807;-84
2023/03/13 01:40:41;;;;;;;;;0.00;0.00;;;;;;;;5064628;28;61669;-84
2023/03/13 01:43:17;;;;;;;;;1.75;1.50;;;;;;;;5082705;28;61801;-85
2023/03/13 01:45:48;;;;;;;;;2.50;1.50;;;;;;;;5065051;28;61904;-84
2023/03/13 01:48:13;;;;;;;;;3.75;2.00;;;;;;;;5081777;28;62127;-84
2023/03/13 01:50:39;;;;;;;;;1.50;1.50;;;;;;;;5064589;28;61843;-84
2023/03/13 01:53:04;;;;;;;;;4.50;3.75;;;;;;;;5082704;28;61826;-85
2023/03/13 01:55:29;;;;;;;;;2.00;2.00;;;;;;;;5064405;28;62174;-84
2023/03/13 01:57:56;;;;;;;;;4.25;1.75;;;;;;;;5063488;28;63967;-84
2023/03/13 02:00:23;;;;;;;;;4.25;2.00;;;;;;;;5082300;28;61844;-84
2023/03/13 02:02:50;;;;;;;;;6.50;2.00;;;;;;;;5082852;28;61821;-85
2023/03/13 02:05:17;;;;;;;;;2.25;1.25;;;;;;;;5083078;28;61764;-84
2023/03/13 02:07:49;;;;;;;;;4.50;2.25;;;;;;;;5081154;28;62092;-84
2023/03/13 02:10:16;;;;;;;;;3.00;3.00;;;;;;;;5082205;28;61862;-84
2023/03/13 02:12:42;;;;;;;;;2.50;1.50;;;;;;;;5083398;27;61923;-84
2023/03/13 02:15:13;;;;;;;;;3.00;2.00;;;;;;;;5083956;27;62188;-84
2023/03/13 02:17:40;;;;;;;;;1.25;1.25;;;;;;;;5081187;28;63774;-84
2023/03/13 02:20:06;;;;;;;;;2.00;2.00;;;;;;;;5081693;28;61806;-84
2023/03/13 02:22:34;;;;;;;;;3.00;3.00;;;;;;;;5082732;28;62109;-85
2023/03/13 02:25:02;;;;;;;;;2.50;2.00;;;;;;;;5082711;28;61849;-82
2023/03/13 02:27:27;;;;;;;;;4.00;3.00;;;;;;;;5081672;27;61910;-84
2023/03/13 02:29:53;;;;;;;;;2.00;2.00;;;;;;;;5082258;27;62120;-83
2023/03/13 02:32:18;;;;;;;;;3.00;3.00;;;;;;;;5080843;28;62081;-83
2023/03/13 02:34:45;;;;;;;;;3.75;2.25;;;;;;;;5082731;27;62205;-84
2023/03/13 02:37:12;;;;;;;;;2.00;2.00;;;;;;;;5080234;27;63776;-83
2023/03/13 02:39:40;;;;;;;;;3.00;1.75;;;;;;;;5081673;28;62124;-84
2023/03/13 02:42:06;;;;;;;;;8.00;3.00;;;;;;;;5081085;27;61941;-84
2023/03/13 02:44:36;;;;;;;;;2.00;2.00;;;;;;;;5082382;28;61750;-84
2023/03/13 02:47:01;;;;;;;;;3.25;3.00;;;;;;;;5063491;28;63906;-84
2023/03/13 02:49:28;;;;;;;;;2.50;2.00;;;;;;;;5081877;28;61754;-84
2023/03/13 02:51:55;;;;;;;;;5.00;4.00;;;;;;;;5080798;28;61812;-83
2023/03/13 02:54:23;;;;;;;;;2.00;2.00;;;;;;;;5082869;27;62117;-84
2023/03/13 02:56:51;;;;;;;;;3.25;3.00;;;;;;;;5083728;27;64105;-83
2023/03/13 02:59:16;;;;;;;;;2.75;1.75;;;;;;;;5083925;27;62012;-84
2023/03/13 03:01:41;;;;;;;;;2.25;2.25;;;;;;;;5083906;28;62061;-83
2023/03/13 03:04:07;;;;;;;;;3.00;2.00;;;;;;;;5086122;27;61728;-83
2023/03/13 03:06:32;;;;;;;;;2.00;0.00;;;;;;;;5083367;28;63530;-84
2023/03/13 03:08:57;;;;;;;;;2.75;1.25;;;;;;;;5084719;27;62062;-83
2023/03/13 03:11:23;;;;;;;;;3.00;3.00;;;;;;;;5085271;28;61897;-83
2023/03/13 03:13:48;;;;;;;;;1.00;1.00;;;;;;;;5084402;27;62104;-84
2023/03/13 03:16:17;;;;;;;;;3.50;3.00;;;;;;;;5084679;28;61837;-83
2023/03/13 03:18:42;;;;;;;;;3.50;2.50;;;;;;;;5083865;27;61929;-83
2023/03/13 03:21:07;;;;;;;;;4.00;1.75;;;;;;;;5084151;27;61825;-83
2023/03/13 03:23:33;;;;;;;;;5.25;3.00;;;;;;;;5084587;27;62080;-83
2023/03/13 03:25:58;;;;;;;;;2.00;2.00;;;;;;;;5084595;27;61838;-84
2023/03/13 03:28:24;;;;;;;;;2.50;1.00;;;;;;;;5085095;27;61774;-84
2023/03/13 03:30:49;;;;;;;;;2.50;1.00;;;;;;;;5084809;27;61743;-84
2023/03/13 03:33:14;;;;;;;;;4.75;2.50;;;;;;;;5085114;27;62061;-84
2023/03/13 03:35:40;;;;;;;;;4.25;2.25;;;;;;;;5082934;27;63670;-84
2023/03/13 03:38:05;;;;;;;;;3.00;2.00;;;;;;;;5083062;28;62030;-84
2023/03/13 03:40:30;;;;;;;;;2.50;2.50;;;;;;;;5083160;27;62069;-83
2023/03/13 03:42:55;;;;;;;;;6.00;2.25;;;;;;;;5085306;27;61830;-83
2023/03/13 03:45:21;;;;;;;;;2.00;2.00;;;;;;;;5084089;27;62087;-83
2023/03/13 03:47:46;;;;;;;;;3.00;1.25;;;;;;;;5083166;27;61921;-84
2023/03/13 03:50:11;;;;;;;;;2.25;2.25;;;;;;;;5084876;28;62098;-83
2023/03/13 03:52:37;;;;;;;;;2.00;2.00;;;;;;;;5083136;28;61849;-85
2023/03/13 03:55:02;;;;;;;;;4.00;2.25;;;;;;;;5099570;27;64855;-83
2023/03/13 03:57:27;;;;;;;;;2.00;2.00;;;;;;;;5084509;27;61830;-83
2023/03/13 03:59:53;;;;;;;;;5.00;2.50;;;;;;;;5084561;27;61853;-84
2023/03/13 04:02:18;;;;;;;;;1.00;1.00;;;;;;;;5083539;28;62131;-83
2023/03/13 04:04:43;;;;;;;;;3.75;1.75;;;;;;;;5083734;28;63206;-83
2023/03/13 04:07:09;;;;;;;;;2.25;2.25;;;;;;;;5081163;28;62088;-84
2023/03/13 04:09:34;;;;;;;;;2.00;2.00;;;;;;;;5084069;27;61913;-83
2023/03/13 04:11:59;;;;;;;;;2.25;2.25;;;;;;;;5083255;27;62352;-83
2023/03/13 04:14:24;;;;;;;;;3.25;3.25;;;;;;;;5082467;28;63529;-83
2023/03/13 04:16:50;;;;;;;;;3.00;3.00;;;;;;;;5084368;27;62011;-83
2023/03/13 04:19:15;;;;;;;;;2.00;2.00;;;;;;;;5083366;27;61890;-83
2023/03/13 04:21:40;;;;;;;;;2.25;2.25;;;;;;;;5082806;27;62159;-84
2023/03/13 04:24:05;;;;;;;;;1.75;1.75;;;;;;;;5083304;27;62751;-84
2023/03/13 04:26:31;;;;;;;;;2.25;2.00;;;;;;;;5083040;27;61969;-83
2023/03/13 04:28:56;;;;;;;;;3.50;3.00;;;;;;;;5082298;27;62309;-84
2023/03/13 04:31:22;;;;;;;;;4.25;2.50;;;;;;;;5083005;27;62011;-84
2023/03/13 04:33:47;;;;;;;;;2.25;2.00;;;;;;;;5083269;27;61772;-84
2023/03/13 04:36:12;;;;;;;;;3.50;2.75;;;;;;;;5083844;27;62040;-84
2023/03/13 04:38:38;;;;;;;;;4.00;3.00;;;;;;;;5082746;28;61864;-83
2023/03/13 04:41:03;;;;;;;;;2.25;2.25;;;;;;;;5082653;27;61966;-83
2023/03/13 04:43:28;;;;;;;;;3.25;2.75;;;;;;;;5083669;27;61911;-84
2023/03/13 04:45:53;;;;;;;;;2.75;2.00;;;;;;;;5083892;28;61862;-84
2023/03/13 04:48:19;;;;;;;;;2.25;2.25;;;;;;;;5082689;28;61969;-83
2023/03/13 04:50:44;;;;;;;;;4.50;2.50;;;;;;;;5082367;28;61929;-83
2023/03/13 04:53:09;;;;;;;;;3.00;3.00;;;;;;;;5081905;27;64858;-84
2023/03/13 04:55:34;;;;;;;;;2.00;2.00;;;;;;;;5082519;27;62091;-84
2023/03/13 04:58:00;;;;;;;;;1.75;1.00;;;;;;;;5082374;28;61968;-84
2023/03/13 05:00:25;;;;;;;;;3.00;2.25;;;;;;;;5083124;28;62021;-83
2023/03/13 05:02:50;;;;;;;;;6.25;3.00;;;;;;;;5081862;28;64896;-83
2023/03/13 05:05:16;;;;;;;;;3.75;3.75;;;;;;;;5082429;28;61867;-84
2023/03/13 05:07:41;;;;;;;;;1.00;1.00;;;;;;;;5082697;28;61867;-83
2023/03/13 05:10:06;;;;;;;;;3.00;2.00;;;;;;;;5082200;27;61739;-83
2023/03/13 05:12:32;;;;;;;;;6.25;4.75;;;;;;;;5082312;27;63530;-84
2023/03/13 05:14:57;;;;;;;;;2.25;1.50;;;;;;;;5082270;28;62047;-83
2023/03/13 05:17:22;;;;;;;;;2.25;2.25;;;;;;;;5083263;28;62071;-82
2023/03/13 05:19:48;;;;;;;;;3.00;2.50;;;;;;;;5083570;27;61783;-84
2023/03/13 05:22:17;;;;;;;;;7.75;3.00;;;;;;;;5082930;27;61703;-83
2023/03/13 05:24:56;;;;;;;;;4.00;3.50;;;;;;;;5083323;27;61791;-84
2023/03/13 05:27:21;;;;;;;;;8.00;4.00;;;;;;;;5083558;27;61873;-83
2023/03/13 05:29:46;;;;;;;;;6.50;3.75;;;;;;;;5083386;28;61785;-84
2023/03/13 05:32:12;;;;;;;;;7.25;4.50;;;;;;;;5082565;27;61928;-83
2023/03/13 05:34:37;;;;;;;;;4.50;4.00;;;;;;;;5083088;27;61964;-84
2023/03/13 05:37:02;;;;;;;;;6.25;3.00;;;;;;;;5081831;27;61958;-84
2023/03/13 05:39:27;;;;;;;;;5.25;3.50;;;;;;;;5082725;27;61969;-83
2023/03/13 05:41:53;;;;;;;;;4.00;4.00;;;;;;;;5082862;28;62080;-84
2023/03/13 05:44:18;;;;;;;;;4.00;4.00;;;;;;;;5081559;28;61916;-84
2023/03/13 05:46:43;;;;;;;;;5.00;4.00;;;;;;;;5081656;28;61868;-83
2023/03/13 05:49:08;;;;;;;;;8.50;5.25;;;;;;;;5081559;27;61753;-84
2023/03/13 05:51:34;;;;;;;;;7.00;5.50;;;;;;;;5082956;27;61785;-84
2023/03/13 05:53:59;;;;;;;;;3.75;3.00;;;;;;;;5082735;28;62005;-83
2023/03/13 05:56:24;;;;;;;;;4.50;3.25;;;;;;;;5083129;27;61834;-83
2023/03/13 05:58:49;;;;;;;;;4.25;4.25;;;;;;;;5082611;27;61965;-83
2023/03/13 06:01:15;;;;;;;;;3.75;3.75;;;;;;;;5082271;28;62120;-84
2023/03/13 06:03:40;;;;;;;;;3.25;2.50;;;;;;;;5081265;28;61762;-84
2023/03/13 06:06:05;;;;;;;;;3.00;3.00;;;;;;;;5082705;27;61698;-84
2023/03/13 06:08:31;;;;;;;;;4.25;2.00;;;;;;;;5082929;27;61877;-84
2023/03/13 06:11:00;;;;;;;;;3.00;1.75;;;;;;;;5080883;27;63583;-85
2023/03/13 06:13:26;;;;;;;;;2.50;2.25;;;;;;;;5081535;28;61826;-86
2023/03/13 06:15:52;;;;;;;;;2.25;2.25;;;;;;;;5082020;28;61985;-86
2023/03/13 06:18:17;;;;;;;;;5.50;4.50;;;;;;;;5080846;28;62473;-86
2023/03/13 06:20:42;;;;;;;;;4.25;3.00;;;;;;;;5080906;28;65037;-84
2023/03/13 06:23:08;;;;;;;;;3.00;2.50;;;;;;;;5080911;27;62012;-84
2023/03/13 06:25:33;;;;;;;;;5.25;2.25;;;;;;;;5080688;28;62021;-84
2023/03/13 06:27:59;;;;;;;;;2.75;2.75;;;;;;;;5082340;27;61743;-84
2023/03/13 06:30:24;;;;;;;;;3.00;3.00;;;;;;;;5084089;27;61998;-83
2023/03/13 06:32:49;;;;;;;;;3.50;3.00;;;;;;;;5073929;27;62255;-84
2023/03/13 06:35:15;;;;;;;;;3.00;3.00;;;;;;;;5067663;28;61905;-85
2023/03/13 06:37:40;;;;;;;;;4.50;4.50;;;;;;;;5067711;28;62223;-84
2023/03/13 06:40:05;;;;;;;;;3.00;3.00;;;;;;;;5085145;28;62953;-83
2023/03/13 06:42:31;;;;;;;;;4.00;3.75;;;;;;;;5068052;28;61985;-83
2023/03/13 06:44:56;;;;;;;;;5.00;2.00;;;;;;;;5073944;28;61983;-84
2023/03/13 06:47:21;;;;;;;;;7.00;2.00;;;;;;;;5046829;28;61970;-80
2023/03/13 06:49:46;;;;;;;;;5.50;3.00;;;;;;;;5061533;28;63706;-83
2023/03/13 06:52:12;;;;;;;;;2.00;2.00;;;;;;;;5066747;28;62338;-85
2023/03/13 06:54:37;;;;;;;;;2.25;2.25;;;;;;;;5056062;28;62051;-85
2023/03/13 06:57:02;;;;;;;;;3.50;3.50;;;;;;;;5076809;28;61779;-84
2023/03/13 06:59:28;;;;;;;;;5.00;3.00;;;;;;;;5073999;28;63049;-85
2023/03/13 07:01:53;;;;;;;;;4.25;2.75;;;;;;;;5062060;28;61894;-83
2023/03/13 07:04:19;;;;;;;;;2.75;2.00;;;;;;;;5055960;28;62152;-84
2023/03/13 07:06:44;;;;;;;;;2.25;2.00;;;;;;;;5059634;28;62022;-83
2023/03/13 07:09:09;;;;;;;;;4.00;4.00;;;;;;;;5086024;28;63134;-84
2023/03/13 07:11:35;;;;;;;;;2.50;2.50;;;;;;;;5085695;27;62377;-84
2023/03/13 07:14:00;;;;;;;;;2.25;2.25;;;;;;;;5087486;28;62106;-85
2023/03/13 07:16:26;;;;;;;;;2.75;2.75;;;;;;;;5068738;28;61774;-82
2023/03/13 07:18:51;;;;;;;;;2.25;1.75;;;;;;;;5091701;28;62241;-83
2023/03/13 07:21:16;;;;;;;;;3.00;1.00;;;;;;;;5094552;27;61893;-83
2023/03/13 07:23:42;;;;;;;;;2.00;2.00;;;;;;;;5074562;28;61426;-82
2023/03/13 07:26:09;;;;;;;;;3.00;3.00;;;;;;;;5074711;28;61914;-81
2023/03/13 07:28:35;;;;;;;;;5.25;2.75;;;;;;;;5074589;28;64803;-81
2023/03/13 07:31:03;;;;;;;;;4.25;2.00;;;;;;;;5094216;27;61115;-82
2023/03/13 07:33:29;;;;;;;;;2.75;2.75;;;;;;;;5090345;27;61730;-82
2023/03/13 07:35:54;;;;;;;;;2.50;2.50;;;;;;;;5089482;27;61708;-82
2023/03/13 07:38:19;;;;;;;;;1.75;1.75;;;;;;;;5071172;28;63364;-83
2023/03/13 07:40:48;;;;;;;;;3.75;2.00;;;;;;;;5067910;28;61837;-84
2023/03/13 07:43:14;;;;;;;;;2.25;2.25;;;;;;;;5069292;28;61837;-81
2023/03/13 07:45:48;;;;;;;;;4.25;2.00;;;;;;;;5066839;28;62215;-84
2023/03/13 07:48:13;;;;;;;;;2.75;1.75;;;;;;;;5084700;27;61969;-83
2023/03/13 07:50:39;;;;;;;;;3.00;2.00;;;;;;;;5067893;28;61934;-83
2023/03/13 07:53:04;;;;;;;;;4.00;2.00;;;;;;;;5077943;27;61807;-82
2023/03/13 07:55:29;;;;;;;;;1.50;1.50;;;;;;;;5069156;28;62000;-82
2023/03/13 07:57:54;;;;;;;;;3.25;3.00;;;;;;;;5068089;28;63809;-82
2023/03/13 08:00:20;;;;;;;;;2.50;2.50;;;;;;;;5087631;28;61728;-84
2023/03/13 08:02:45;;;;;;;;;1.00;0.00;;;;;;;;5072632;28;62387;-84
2023/03/13 08:05:10;;;;;;;;;4.00;2.75;;;;;;;;5071313;28;61961;-84
2023/03/13 08:07:36;;;;;;;;;2.25;1.00;;;;;;;;5076560;27;63651;-85
2023/03/13 08:10:01;;;;;;;;;2.25;2.25;;;;;;;;5085762;28;61305;-84
2023/03/13 08:12:26;;;;;;;;;7.00;3.00;;;;;;;;5085449;27;62053;-84
2023/03/13 08:14:51;;;;;;;;;5.00;3.00;;;;;;;;5087440;28;61934;-85
2023/03/13 08:17:17;;;;;;;;;5.00;3.00;;;;;;;;5058427;27;63880;-84
2023/03/13 08:19:42;;;;;;;;;3.75;3.75;;;;;;;;5061109;28;61830;-87
2023/03/13 08:22:07;;;;;;;;;1.25;1.00;;;;;;;;5086264;27;61841;-85
2023/03/13 08:24:33;;;;;;;;;2.00;2.00;;;;;;;;5083394;28;61987;-84
2023/03/13 08:26:58;;;;;;;;;3.00;1.25;;;;;;;;5084551;28;63596;-82
2023/03/13 08:29:23;;;;;;;;;2.00;2.00;;;;;;;;5083438;28;61937;-85
2023/03/13 08:31:50;;;;;;;;;4.00;2.00;;;;;;;;5068970;28;61362;-83
2023/03/13 08:34:16;;;;;;;;;3.00;2.00;;;;;;;;5005502;28;1335776;-83
2023/03/13 08:36:41;;;;;;;;;3.25;3.25;;;;;;;;5052611;28;65077;-85
2023/03/13 08:39:09;;;;;;;;;1.25;1.25;;;;;;;;5054768;28;62180;-84
2023/03/13 08:41:35;;;;;;;;;3.00;2.00;;;;;;;;5057444;28;61829;-85
2023/03/13 08:44:02;;;;;;;;;2.00;2.00;;;;;;;;5055486;28;62160;-78
2023/03/13 08:46:31;;;;;;;;;1.00;0.75;;;;;;;;5058102;28;63716;-79
2023/03/13 08:48:56;;;;;;;;;1.00;1.00;;;;;;;;5073902;28;62017;-79
2023/03/13 08:51:23;;;;;;;;;1.75;1.75;;;;;;;;5071144;28;61339;-78
2023/03/13 08:53:48;;;;;;;;;1.00;1.00;;;;;;;;5065503;28;61917;-80
2023/03/13 08:56:15;;;;;;;;;4.50;2.75;;;;;;;;5060763;28;63587;-88
2023/03/13 08:58:41;;;;;;;;;2.75;1.75;;;;;;;;5063382;28;61922;-86
2023/03/13 09:01:08;;;;;;;;;3.00;2.00;;;;;;;;5062996;28;62274;-85
2023/03/13 09:03:33;;;;;;;;;2.75;1.25;;;;;;;;5064166;28;61949;-85
2023/03/13 09:05:59;;;;;;;;;2.25;1.25;;;;;;;;5061556;28;63604;-85
2023/03/13 09:08:25;;;;;;;;;2.50;2.50;;;;;;;;5064673;28;61794;-84
2023/03/13 09:10:54;;;;;;;;;5.00;3.00;;;;;;;;5063995;28;62162;-85
2023/03/13 09:13:19;;;;;;;;;1.75;1.25;;;;;;;;5064732;28;61739;-84
2023/03/13 09:15:44;;;;;;;;;3.00;3.00;;;;;;;;5065654;28;62845;-84
2023/03/13 09:18:10;;;;;;;;;4.50;2.00;;;;;;;;5065341;28;61882;-84
2023/03/13 09:20:37;;;;;;;;;2.75;1.50;;;;;;;;5071294;28;61489;-84
2023/03/13 09:23:02;;;;;;;;;4.50;2.00;;;;;;;;5070046;28;62247;-85
2023/03/13 09:25:27;;;;;;;;;1.75;1.00;;;;;;;;5069495;28;62406;-83
2023/03/13 09:27:53;;;;;;;;;1.00;1.00;;;;;;;;5067776;28;62259;-83
2023/03/13 09:30:18;;;;;;;;;4.00;2.00;;;;;;;;5070615;28;62040;-84
2023/03/13 09:32:43;;;;;;;;;2.25;1.75;;;;;;;;5073505;27;62344;-83
2023/03/13 09:35:09;;;;;;;;;3.00;3.00;;;;;;;;5090224;28;63510;-83
2023/03/13 09:37:34;;;;;;;;;1.25;1.25;;;;;;;;5092916;27;61786;-84
2023/03/13 09:39:59;;;;;;;;;4.00;3.00;;;;;;;;5091270;28;61198;-82
2023/03/13 09:42:39;;;;;;;;;4.25;1.25;;;;;;;;5093687;27;62199;-83
2023/03/13 09:45:07;;;;;;;;;4.25;4.25;;;;;;;;5091995;27;62024;-83
2023/03/13 09:47:41;;;;;;;;;3.25;3.25;;;;;;;;5107576;27;61788;-83
2023/03/13 09:50:12;;;;;;;;;5.25;5.00;;;;;;;;5090623;28;61355;-84
2023/03/13 09:52:39;;;;;;;;;5.75;5.75;;;;;;;;5091481;27;62133;-82
2023/03/13 09:55:29;;;;;;;;;6.50;3.00;;;;;;;;5090114;27;61688;-83
2023/03/13 09:58:09;;;;;;;;;2.00;2.00;;;;;;;;5088673;28;61934;-83
2023/03/13 10:00:35;;;;;;;;;3.00;3.00;;;;;;;;5090890;28;61822;-84
2023/03/13 10:03:01;;;;;;;;;4.25;4.00;;;;;;;;5091460;27;61729;-84
2023/03/13 10:05:27;;;;;;;;;4.50;3.25;;;;;;;;5087787;28;63492;-83
2023/03/13 10:08:15;;;;;;;;;3.75;3.00;;;;;;;;5088773;27;61399;-81
2023/03/13 10:10:47;;;;;;;;;3.25;3.00;;;;;;;;5088200;27;61874;-84
2023/03/13 10:13:30;;;;;;;;;4.00;3.00;;;;;;;;5090925;27;61232;-83
2023/03/13 10:16:10;;;;;;;;;5.00;2.25;;;;;;;;5089683;28;63680;-83
2023/03/13 10:18:36;;;;;;;;;3.00;3.00;;;;;;;;5090618;28;62070;-83
2023/03/13 10:21:19;;;;;;;;;3.25;2.75;;;;;;;;5088466;28;61197;-84
2023/03/13 10:23:53;;;;;;;;;4.00;3.00;;;;;;;;5091398;27;62122;-83
2023/03/13 10:26:22;;;;;;;;;2.00;2.00;;;;;;;;5087823;28;64703;-84
2023/03/13 10:28:49;;;;;;;;;1.75;1.75;;;;;;;;5088871;27;61927;-83
2023/03/13 10:31:25;;;;;;;;;2.00;0.25;;;;;;;;5084879;28;61802;-85
2023/03/13 10:33:51;;;;;;;;;3.00;1.25;;;;;;;;5087058;28;61854;-84
2023/03/13 10:36:18;;;;;;;;;2.50;2.00;;;;;;;;5087178;28;61922;-85
2023/03/13 10:38:51;;;;;;;;;2.00;2.00;;;;;;;;5088130;27;62212;-84
2023/03/13 10:41:27;;;;;;;;;1.00;1.00;;;;;;;;5089549;28;61350;-83
2023/03/13 10:43:54;;;;;;;;;1.00;1.00;;;;;;;;5090045;27;61475;-83
2023/03/13 10:46:24;;;;;;;;;0.75;0.75;;;;;;;;5089417;27;63581;-83
2023/03/13 10:48:52;;;;;;;;;2.00;2.00;;;;;;;;5091936;27;61863;-84
2023/03/13 10:51:21;;;;;;;;;2.00;2.00;;;;;;;;5088942;28;61935;-83
2023/03/13 10:53:47;;;;;;;;;1.75;1.00;;;;;;;;5086900;28;62039;-83
2023/03/13 10:56:14;;;;;;;;;2.00;2.00;;;;;;;;5086105;28;64008;-84
2023/03/13 10:58:41;;;;;;;;;0.00;0.00;;;;;;;;5089056;28;61680;-84
2023/03/13 11:01:16;;;;;;;;;3.25;2.00;;;;;;;;5090204;27;61237;-84
2023/03/13 11:03:41;;;;;;;;;1.00;1.00;;;;;;;;5081977;28;62131;-83
2023/03/13 11:06:21;;;;;;;;;0.50;0.50;;;;;;;;5053320;28;63853;-83
2023/03/13 11:08:46;;;;;;;;;1.00;1.00;;;;;;;;5068533;28;61908;-83
2023/03/13 11:11:19;;;;;;;;;1.25;1.25;;;;;;;;5070592;28;61943;-83
2023/03/13 11:13:45;;;;;;;;;0.50;0.50;;;;;;;;5068905;28;61812;-84
2023/03/13 11:16:10;;;;;;;;;1.00;1.00;;;;;;;;5070102;28;62740;-84
2023/03/13 11:18:35;;;;;;;;;4.00;1.75;;;;;;;;5054268;28;61651;-84
2023/03/13 11:21:02;;;;;;;;;2.00;2.00;;;;;;;;5055131;28;61728;-84
2023/03/13 11:23:28;;;;;;;;;4.75;2.00;;;;;;;;5072675;28;61669;-85
2023/03/13 11:26:12;;;;;;;;;1.50;1.00;;;;;;;;5070339;28;61847;-84
2023/03/13 11:28:40;;;;;;;;;5.00;1.00;;;;;;;;5053450;28;61941;-83
2023/03/13 11:31:11;;;;;;;;;1.00;1.00;;;;;;;;5072163;28;61673;-85
2023/03/13 11:33:37;;;;;;;;;3.67;1.00;;;;;;;;5053017;28;61801;-84
2023/03/13 11:36:05;;;;;;;;;1.00;1.00;;;;;;;;5066608;28;62954;-86
2023/03/13 11:38:36;;;;;;;;;2.00;1.00;;;;;;;;5065966;28;62163;-84
2023/03/13 11:41:14;;;;;;;;;0.50;0.50;;;;;;;;5066208;28;61304;-85
2023/03/13 11:43:49;;;;;;;;;2.67;1.00;;;;;;;;5048417;28;61930;-85
2023/03/13 11:46:22;;;;;;;;;1.00;1.00;;;;;;;;5065157;28;63265;-85
2023/03/13 11:48:47;;;;;;;;;1.50;1.50;;;;;;;;5047352;28;62071;-86
2023/03/13 11:51:13;;;;;;;;;1.00;1.00;;;;;;;;5049537;28;61945;-84
2023/03/13 11:53:38;;;;;;;;;4.25;0.75;;;;;;;;5053630;28;61779;-84
2023/03/13 11:56:06;;;;;;;;;1.75;1.25;;;;;;;;5070208;28;62775;-82
2023/03/13 11:58:40;;;;;;;;;3.50;1.00;;;;;;;;5052169;28;61906;-84
2023/03/13 12:01:15;;;;;;;;;1.50;0.25;;;;;;;;5070370;28;61658;-84
2023/03/13 12:04:03;;;;;;;;;1.25;0.00;;;;;;;;5071899;28;61412;-84
2023/03/13 12:06:33;;;;;;;;;4.50;1.00;;;;;;;;5050344;28;63694;-85
2023/03/13 12:09:08;;;;;;;;;2.50;1.00;;;;;;;;5088002;27;61659;-86
2023/03/13 12:11:45;;;;;;;;;4.00;1.75;;;;;;;;5088880;27;61911;-86
2023/03/13 12:14:16;;;;;;;;;1.25;1.00;;;;;;;;5065254;28;62085;-84
2023/03/13 12:16:50;;;;;;;;;1.00;1.00;;;;;;;;5079637;28;62175;-85
2023/03/13 12:19:41;;;;;;;;;1.00;1.00;;;;;;;;5062070;28;62121;-87
2023/03/13 12:22:13;;;;;;;;;1.75;1.00;;;;;;;;5002402;28;62106;-86
2023/03/13 12:24:43;;;;;;;;;1.75;1.00;;;;;;;;4976280;28;62002;-86
2023/03/13 12:27:14;;;;;;;;;3.00;2.00;;;;;;;;4996996;28;61920;-85
2023/03/13 12:29:39;;;;;;;;;3.33;2.00;;;;;;;;4975960;28;62040;-86
2023/03/13 12:32:10;;;;;;;;;2.00;1.00;;;;;;;;4992159;28;61919;-86
2023/03/13 12:34:45;;;;;;;;;2.00;0.00;;;;;;;;4966002;28;62301;-88
2023/03/13 12:37:10;;;;;;;;;2.00;1.75;;;;;;;;4981983;28;62487;-85
2023/03/13 12:39:48;;;;;;;;;2.00;2.00;;;;;;;;4969048;28;62196;-85
2023/03/13 12:42:19;;;;;;;;;2.75;1.00;;;;;;;;5002080;28;62238;-85
2023/03/13 12:44:45;;;;;;;;;4.00;1.50;;;;;;;;5000105;28;62140;-86
2023/03/13 12:47:28;;;;;;;;;4.25;2.50;;;;;;;;4983708;28;63459;-85
2023/03/13 12:50:05;;;;;;;;;1.33;1.00;;;;;;;;5000684;28;62127;-85
2023/03/13 12:52:47;;;;;;;;;3.67;2.33;;;;;;;;4984954;28;62005;-85
2023/03/13 12:55:21;;;;;;;;;2.67;2.00;;;;;;;;4984735;28;62459;-85
2023/03/13 12:57:49;;;;;;;;;1.00;1.00;;;;;;;;4986233;28;65026;-85
2023/03/13 13:00:17;;;;;;;;;2.00;2.00;;;;;;;;5066287;28;61814;-86
2023/03/13 13:02:43;;;;;;;;;3.00;1.00;;;;;;;;5084807;28;61907;-86
2023/03/13 13:05:18;;;;;;;;;2.00;1.00;;;;;;;;5066703;28;62113;-86
2023/03/13 13:07:51;;;;;;;;;3.00;2.00;;;;;;;;5074085;28;64022;-85
2023/03/13 13:10:19;;;;;;;;;3.33;0.00;;;;;;;;5083944;27;62098;-86
2023/03/13 13:12:46;;;;;;;;;2.33;1.33;;;;;;;;5083191;27;61712;-86
2023/03/13 13:15:19;;;;;;;;;1.00;1.00;;;;;;;;5083363;28;61748;-86
2023/03/13 13:17:54;;;;;;;;;0.67;0.00;;;;;;;;5082385;28;63724;-86
2023/03/13 13:20:25;;;;;;;;;1.67;1.67;;;;;;;;5084432;27;61671;-86
2023/03/13 13:22:51;;;;;;;;;4.00;1.00;;;;;;;;5084350;27;61913;-86
2023/03/13 13:25:16;;;;;;;;;2.00;2.00;;;;;;;;5084039;28;61918;-85
2023/03/13 13:27:41;;;;;;;;;4.67;1.67;;;;;;;;5082400;28;63494;-86
2023/03/13 13:30:15;;;;;;;;;1.67;1.67;;;;;;;;5082877;28;61913;-86
2023/03/13 13:32:42;;;;;;;;;0.00;0.00;;;;;;;;5084307;28;61951;-84
2023/03/13 13:35:10;;;;;;;;;2.00;1.00;;;;;;;;5084929;28;62132;-85
2023/03/13 13:37:37;;;;;;;;;1.67;1.67;;;;;;;;5084824;28;62677;-85
2023/03/13 13:40:16;;;;;;;;;1.33;0.00;;;;;;;;5083874;28;62012;-86
2023/03/13 13:42:55;;;;;;;;;2.33;1.00;;;;;;;;5086500;27;62113;-85
2023/03/13 13:45:24;;;;;;;;;1.67;0.67;;;;;;;;5103511;27;61329;-85
2023/03/13 13:47:50;;;;;;;;;3.33;0.33;;;;;;;;5086145;28;61738;-84
2023/03/13 13:50:18;;;;;;;;;0.00;0.00;;;;;;;;5103360;27;61322;-84
2023/03/13 13:52:44;;;;;;;;;1.00;0.00;;;;;;;;5085452;28;61770;-85
2023/03/13 13:55:28;;;;;;;;;0.00;0.00;;;;;;;;5085919;28;62624;-85
2023/03/13 13:57:59;;;;;;;;;1.67;1.33;;;;;;;;5085726;28;63059;-85
2023/03/13 14:00:35;;;;;;;;;3.67;0.67;;;;;;;;5084356;28;61758;-85
2023/03/13 14:03:00;;;;;;;;;0.00;0.00;;;;;;;;5085443;27;61753;-86
2023/03/13 14:05:27;;;;;;;;;2.00;0.67;;;;;;;;5086473;27;61802;-85
2023/03/13 14:07:55;;;;;;;;;1.00;1.00;;;;;;;;5074146;28;63756;-85
2023/03/13 14:10:37;;;;;;;;;0.00;0.00;;;;;;;;5085662;28;62026;-87
2023/03/13 14:13:17;;;;;;;;;0.33;0.33;;;;;;;;5068771;28;62048;-85
2023/03/13 14:15:45;;;;;;;;;1.00;1.00;;;;;;;;5067241;28;61691;-85
2023/03/13 14:18:27;;;;;;;;;2.00;0.00;;;;;;;;5083850;28;61824;-86
2023/03/13 14:20:52;;;;;;;;;0.67;0.67;;;;;;;;5084894;27;61858;-84
2023/03/13 14:23:40;;;;;;;;;1.00;0.67;;;;;;;;5086526;27;61937;-85
2023/03/13 14:26:16;;;;;;;;;1.00;0.67;;;;;;;;5086637;27;61965;-84
2023/03/13 14:28:42;;;;;;;;;3.00;0.67;;;;;;;;5065789;28;64068;-86
2023/03/13 14:31:08;;;;;;;;;1.00;1.00;;;;;;;;5066352;28;61270;-85
2023/03/13 14:33:34;;;;;;;;;0.50;0.00;;;;;;;;5066091;28;62064;-85
2023/03/13 14:36:00;;;;;;;;;0.00;0.00;;;;;;;;5085099;27;61855;-85
2023/03/13 14:38:26;;;;;;;;;2.00;1.00;;;;;;;;5065705;28;63823;-86
2023/03/13 14:40:54;;;;;;;;;0.33;0.00;;;;;;;;5065543;28;61776;-85
2023/03/13 14:43:22;;;;;;;;;2.00;2.00;;;;;;;;5085115;28;62163;-85
2023/03/13 14:45:48;;;;;;;;;1.00;1.00;;;;;;;;5084369;28;62017;-85